Arlington, Washington
Current Conditions -  °F | °C
As of 11:55 PM on Thursday 18 Dec 2014 (Local Time) from KAWO Reporting Station
Overcast Overcast  
Wind Chill: 40°   Ceiling: 4300
Heat Index: 46°   Visibility: 10mi
Dew Point: 43°   Wind: 16mph
Humidity: 87%   Direction: 140°SE
Pressure: 29.77"   Gusts: 22mph
Location:  48.2°N, 122.13°W
Report Text: KAWO 190755Z AUTO 14014G19KT 10SM FEW027 BKN043 OVC050 08/06 A2977 RMK AO1 P0001
Loading
Personal Weather Stations






























Interactive Weather Map New forecast layout! Learn more

10-Day Weather Forecast

Advertisements
Track Severe Weather on mobile